Thursday, August 24, 2017, 1:03 AM EDT
Back to Local

KIPT, Williamsport-lycoming County

Location: Montoursville, PA, United States Lat: 41.25
Local Time: 1:03 AM EDT ( 5:03 GMT) Lon: -76.917
Time Zone: US/Eastern Elev: 528 ft

Show me the last for .
Show Decoded

2017-08-23 23:54 METAR KIPT 240354Z AUTO 29003KT 10SM CLR 16/15 A2992 RMK AO2 SLP128 T01610150 =
2017-08-23 22:54 METAR KIPT 240254Z AUTO 33003KT 10SM CLR 17/16 A2991 RMK AO2 SLP125 T01720156
                 51013 =
2017-08-23 21:54 METAR KIPT 240154Z 00000KT 10SM CLR 18/16 A2990 RMK AO2 SLP123 T01830156 =
2017-08-23 20:54 METAR KIPT 240054Z 29004KT 10SM FEW070 19/16 A2989 RMK AO2 SLP118 T01940156 =
2017-08-23 19:54 METAR KIPT 232354Z 23003KT 10SM CLR 21/16 A2987 RMK AO2 SLP112 T02110156 10267
                 20211 53003 =
2017-08-23 18:54 METAR KIPT 232254Z 23004KT 10SM FEW090 24/14 A2985 RMK AO2 SLP106 T02390139 =
2017-08-23 17:54 METAR KIPT 232154Z 23004KT 10SM FEW090 26/13 A2985 RMK AO2 SLP105 T02610128 =
2017-08-23 16:54 METAR KIPT 232054Z 28004KT 10SM FEW085 25/11 A2986 RMK AO2 SLP107 T02500111
                 58008 =
2017-08-23 15:54 METAR KIPT 231954Z 27003KT 10SM BKN080 25/12 A2987 RMK AO2 SLP111 T02500117 =
2017-08-23 14:54 METAR KIPT 231854Z 28006KT 10SM BKN065 OVC080 24/12 A2988 RMK AO2 SLP115
                 T02440117 =
2017-08-23 13:54 METAR KIPT 231754Z 28006G15KT 10SM BKN070 26/12 A2988 RMK AO2 SLP115 T02610117
                 10261 20178 57001 =
2017-08-23 12:54 METAR KIPT 231654Z 29009KT 10SM BKN060 26/12 A2988 RMK AO2 SLP115 T02610117 =
2017-08-23 11:54 METAR KIPT 231554Z 28010KT 10SM SCT033 BKN046 25/13 A2989 RMK AO2 SLP117
                 T02500128 =
2017-08-23 10:54 METAR KIPT 231454Z 31008G16KT 10SM SCT033 BKN046 23/13 A2989 RMK AO2 SLP117
                 T02330133 51003 =
2017-08-23 09:54 METAR KIPT 231354Z 26006KT 10SM CLR 22/15 A2988 RMK AO2 SLP116 T02170150 =
2017-08-23 08:54 METAR KIPT 231254Z 25003KT 10SM CLR 20/15 A2988 RMK AO2 SLP116 T02000150 =
2017-08-23 07:54 METAR KIPT 231154Z 00000KT 10SM CLR 18/15 A2988 RMK AO2 SLP114 70014 T01780150
                 10222 20172 51017 =
2017-08-23 06:54 METAR KIPT 231054Z 36003KT 10SM CLR 18/14 A2987 RMK AO2 SLP111 T01780139 =
2017-08-23 05:54 METAR KIPT 230954Z AUTO 00000KT 10SM CLR 18/14 A2985 RMK AO2 SLP105 T01780139 =
2017-08-23 04:54 METAR KIPT 230854Z AUTO 25005KT 10SM BKN100 19/16 A2983 RMK AO2 SLP095 T01940161
                 53013 =
2017-08-23 03:54 METAR KIPT 230754Z AUTO 29007KT 10SM SCT027 BKN075 OVC095 21/19 A2980 RMK AO2
                 SLP088 T02110194 =
2017-08-23 02:54 METAR KIPT 230654Z AUTO 27007KT 10SM SCT035 BKN100 22/20 A2980 RMK AO2 SLP086
                 T02170200 =
2017-08-23 01:54 METAR KIPT 230554Z AUTO 29006KT 10SM SCT075 BKN095 22/21 A2979 RMK AO2 SLP081
                 60000 T02220206 10239 20217 51005 =

Support USWX by starting your Amazon purchase here.